createdAt,value
2018-09-09T00:01:06.762Z,82.10
2018-09-09T00:03:39.899Z,82.70
2018-09-09T00:06:13.096Z,82.60
2018-09-09T00:08:46.182Z,82.80
2018-09-09T00:11:19.011Z,83.00
2018-09-09T00:13:52.738Z,83.10
2018-09-09T00:16:25.529Z,83.30
2018-09-09T00:18:58.275Z,83.60
2018-09-09T00:21:30.974Z,84.30
2018-09-09T00:24:04.143Z,84.00
2018-09-09T00:26:36.998Z,84.40
2018-09-09T00:29:10.226Z,84.30
2018-09-09T00:31:43.434Z,85.00
2018-09-09T00:34:16.255Z,85.40
2018-09-09T00:36:49.053Z,85.70
2018-09-09T00:39:22.345Z,85.80
2018-09-09T00:41:55.280Z,86.30
2018-09-09T00:44:28.549Z,86.70
2018-09-09T00:47:01.253Z,86.20
2018-09-09T00:50:41.238Z,86.70
2018-09-09T00:53:18.475Z,86.20
2018-09-09T00:55:51.181Z,86.00
2018-09-09T00:58:24.544Z,85.70
2018-09-09T01:01:02.885Z,85.90
2018-09-09T01:03:35.569Z,86.00
2018-09-09T01:06:08.596Z,85.80
2018-09-09T01:08:41.345Z,85.10
2018-09-09T01:11:14.205Z,85.40
2018-09-09T01:13:46.978Z,85.10
2018-09-09T01:16:20.762Z,85.10
2018-09-09T01:18:53.892Z,85.10
2018-09-09T01:21:26.637Z,84.70
2018-09-09T01:24:00.155Z,84.40
2018-09-09T01:26:33.045Z,84.50
2018-09-09T01:29:05.812Z,84.20
2018-09-09T01:31:38.814Z,84.70
2018-09-09T01:34:12.640Z,84.70
2018-09-09T01:36:46.555Z,85.10
2018-09-09T01:39:19.775Z,85.40
2018-09-09T01:41:52.492Z,85.80
2018-09-09T01:44:25.686Z,86.30
2018-09-09T01:46:58.535Z,86.60
2018-09-09T01:49:32.369Z,87.00
2018-09-09T01:52:05.101Z,87.00
2018-09-09T01:54:37.798Z,86.90
2018-09-09T01:57:10.985Z,87.90
2018-09-09T01:59:44.662Z,88.30
2018-09-09T02:02:17.411Z,88.70
2018-09-09T02:04:50.117Z,89.00
2018-09-09T02:07:22.929Z,89.40
2018-09-09T02:09:55.570Z,89.30
2018-09-09T02:12:28.314Z,89.50
2018-09-09T02:15:01.360Z,89.20
2018-09-09T02:17:34.097Z,89.00
2018-09-09T02:20:07.329Z,89.40
2018-09-09T02:22:40.229Z,89.80
2018-09-09T02:25:13.563Z,89.30
2018-09-09T02:27:46.399Z,89.20
2018-09-09T02:30:19.294Z,89.60
2018-09-09T02:32:52.688Z,89.40
2018-09-09T02:35:25.879Z,89.50
2018-09-09T02:37:58.726Z,89.50
2018-09-09T02:40:31.771Z,90.00
2018-09-09T02:43:05.133Z,90.10
2018-09-09T02:45:37.872Z,90.10
2018-09-09T02:48:10.669Z,90.20
2018-09-09T02:50:44.064Z,90.30
2018-09-09T02:53:16.886Z,90.30
2018-09-09T02:55:50.220Z,90.50
2018-09-09T02:58:23.356Z,90.60
2018-09-09T03:00:57.284Z,90.70
2018-09-09T03:03:30.071Z,90.80
2018-09-09T03:06:02.847Z,90.90
2018-09-09T03:08:35.586Z,90.90
2018-09-09T03:11:13.468Z,90.80
2018-09-09T03:13:47.754Z,90.60
2018-09-09T03:16:20.813Z,90.80
2018-09-09T03:18:54.579Z,90.80
2018-09-09T03:21:27.628Z,90.70
2018-09-09T03:24:00.496Z,90.70
2018-09-09T03:26:33.500Z,90.60
2018-09-09T03:29:06.739Z,90.60
2018-09-09T03:31:39.712Z,90.70
2018-09-09T03:34:13.225Z,90.60
2018-09-09T03:36:46.319Z,90.60
2018-09-09T03:39:19.134Z,90.60
2018-09-09T03:41:51.887Z,90.70
2018-09-09T03:44:25.117Z,90.60
2018-09-09T03:46:58.457Z,90.50
2018-09-09T03:49:31.437Z,90.50
2018-09-09T03:52:04.678Z,90.30
2018-09-09T03:54:37.428Z,90.00
2018-09-09T03:57:11.504Z,89.70
2018-09-09T03:59:44.316Z,89.80
2018-09-09T04:02:17.514Z,89.50
2018-09-09T04:04:50.549Z,89.70
2018-09-09T04:07:23.759Z,89.90
2018-09-09T04:09:57.819Z,90.00
2018-09-09T04:12:30.739Z,90.10
2018-09-09T04:15:03.563Z,90.10
2018-09-09T04:17:36.342Z,90.10
2018-09-09T04:20:09.567Z,90.30
2018-09-09T04:22:42.313Z,90.20
2018-09-09T04:25:15.984Z,90.10
2018-09-09T04:27:49.547Z,89.90
2018-09-09T04:30:22.394Z,89.80
2018-09-09T04:32:56.168Z,90.00
2018-09-09T04:35:28.915Z,90.00
2018-09-09T04:38:02.176Z,90.00
2018-09-09T04:40:35.625Z,90.10
2018-09-09T04:43:08.400Z,89.80
2018-09-09T04:45:41.743Z,89.60
2018-09-09T04:48:14.594Z,89.90
2018-09-09T04:50:47.390Z,90.20
2018-09-09T04:53:20.200Z,90.00
2018-09-09T04:55:54.599Z,90.00
2018-09-09T04:58:27.769Z,90.20
2018-09-09T05:01:00.952Z,90.30
2018-09-09T05:03:33.806Z,90.60
2018-09-09T05:06:06.563Z,90.70
2018-09-09T05:08:39.761Z,90.80
2018-09-09T05:11:12.683Z,90.80
2018-09-09T05:13:45.883Z,90.80
2018-09-09T05:16:19.243Z,90.90
2018-09-09T05:18:52.337Z,90.90
2018-09-09T05:21:25.088Z,91.00
2018-09-09T05:23:58.269Z,91.00
2018-09-09T05:26:31.842Z,91.00
2018-09-09T05:29:04.711Z,91.10
2018-09-09T05:31:37.847Z,91.00
2018-09-09T05:34:10.980Z,91.10
2018-09-09T05:36:44.024Z,91.00
2018-09-09T05:39:16.769Z,91.20
2018-09-09T05:41:49.885Z,91.20
2018-09-09T05:44:23.230Z,91.20
2018-09-09T05:46:56.440Z,91.30
2018-09-09T05:49:29.417Z,91.10
2018-09-09T05:52:03.007Z,91.10
2018-09-09T05:54:36.151Z,91.30
2018-09-09T05:57:09.069Z,91.30
2018-09-09T05:59:42.401Z,91.20
2018-09-09T06:02:15.115Z,91.40
2018-09-09T06:04:48.254Z,91.50
2018-09-09T06:07:21.548Z,91.60
2018-09-09T06:09:54.840Z,91.30
2018-09-09T06:12:27.547Z,91.30
2018-09-09T06:15:01.280Z,91.30
2018-09-09T06:17:34.767Z,91.40
2018-09-09T06:20:08.516Z,91.10
2018-09-09T06:22:41.557Z,91.10
2018-09-09T06:25:14.694Z,90.90
2018-09-09T06:27:47.987Z,90.60
2018-09-09T06:30:21.250Z,90.00
2018-09-09T06:32:55.021Z,89.80
2018-09-09T06:35:27.781Z,89.70
2018-09-09T06:38:00.496Z,89.40
2018-09-09T06:40:33.599Z,89.50
2018-09-09T06:43:07.550Z,88.80
2018-09-09T06:45:40.612Z,88.80
2018-09-09T06:48:13.762Z,88.40
2018-09-09T06:50:47.119Z,88.80
2018-09-09T06:53:20.175Z,88.60
2018-09-09T06:55:53.355Z,89.10
2018-09-09T06:58:26.697Z,88.50
2018-09-09T07:00:59.848Z,88.70
2018-09-09T07:03:32.515Z,88.60
2018-09-09T07:06:06.016Z,87.00
2018-09-09T07:08:40.029Z,86.00
2018-09-09T07:11:12.937Z,86.60
2018-09-09T07:13:46.044Z,87.10
2018-09-09T07:16:18.901Z,86.70
2018-09-09T07:18:51.609Z,85.90
2018-09-09T07:21:25.432Z,86.30
2018-09-09T07:23:58.094Z,85.50
2018-09-09T07:26:30.804Z,86.50
2018-09-09T07:29:04.190Z,86.30
2018-09-09T07:31:36.983Z,85.60
2018-09-09T07:34:10.109Z,84.80
2018-09-09T07:36:43.649Z,84.60
2018-09-09T07:39:16.426Z,83.50
2018-09-09T07:41:49.463Z,82.40
2018-09-09T07:44:22.608Z,82.00
2018-09-09T07:46:55.839Z,81.30
2018-09-09T07:49:28.636Z,82.20
2018-09-09T07:52:01.876Z,81.50
2018-09-09T07:54:34.616Z,80.10
2018-09-09T07:57:07.924Z,78.50
2018-09-09T07:59:41.698Z,79.30
2018-09-09T08:02:14.941Z,77.90
2018-09-09T08:04:47.813Z,78.00
2018-09-09T08:07:20.637Z,77.20
2018-09-09T08:09:53.889Z,77.70
2018-09-09T08:12:26.920Z,75.60
2018-09-09T08:14:59.669Z,74.80
2018-09-09T08:17:33.475Z,75.20
2018-09-09T08:20:07.050Z,74.20
2018-09-09T08:22:40.155Z,72.80
2018-09-09T08:25:13.500Z,72.30
2018-09-09T08:27:46.482Z,71.90
2018-09-09T08:30:20.116Z,72.40
2018-09-09T08:32:52.830Z,73.10
2018-09-09T08:35:25.581Z,72.60
2018-09-09T08:37:59.293Z,70.80
2018-09-09T08:40:32.155Z,71.00
2018-09-09T08:43:05.275Z,69.60
2018-09-09T08:45:38.190Z,69.60
2018-09-09T08:48:10.885Z,66.60
2018-09-09T08:50:43.709Z,68.30
2018-09-09T08:53:16.430Z,68.10
2018-09-09T08:55:49.881Z,67.60
2018-09-09T08:58:22.956Z,67.50
2018-09-09T09:00:55.772Z,69.50
2018-09-09T09:03:28.546Z,67.80
2018-09-09T09:06:02.015Z,66.90
2018-09-09T09:08:34.927Z,67.20
2018-09-09T09:11:07.920Z,67.90
2018-09-09T09:13:41.236Z,66.90
2018-09-09T09:16:14.140Z,68.40
2018-09-09T09:18:46.916Z,68.00
2018-09-09T09:21:19.790Z,67.80
2018-09-09T09:23:52.497Z,68.20
2018-09-09T09:26:26.412Z,66.50
2018-09-09T09:28:59.271Z,66.20
2018-09-09T09:31:32.017Z,65.20
2018-09-09T09:34:05.093Z,66.40
2018-09-09T09:36:37.901Z,64.90
2018-09-09T09:39:11.278Z,66.40
2018-09-09T09:41:44.672Z,66.60
2018-09-09T09:44:18.047Z,65.20
2018-09-09T09:46:50.743Z,63.80
2018-09-09T09:49:23.723Z,64.50
2018-09-09T09:51:57.663Z,63.90
2018-09-09T09:54:30.359Z,63.30
2018-09-09T09:57:03.156Z,61.50
2018-09-09T09:59:36.910Z,62.40
2018-09-09T10:02:10.629Z,63.00
2018-09-09T10:04:43.280Z,61.30
2018-09-09T10:07:17.139Z,62.30
2018-09-09T10:09:49.846Z,61.30
2018-09-09T10:12:22.585Z,61.20
2018-09-09T10:14:55.291Z,61.20
2018-09-09T10:17:28.021Z,60.30
2018-09-09T10:20:00.904Z,61.50
2018-09-09T10:22:35.039Z,60.90
2018-09-09T10:25:08.450Z,61.00
2018-09-09T10:27:41.214Z,60.20
2018-09-09T10:30:14.006Z,60.60
2018-09-09T10:32:47.213Z,61.30
2018-09-09T10:35:19.931Z,59.80
2018-09-09T10:37:52.962Z,59.60
2018-09-09T10:40:25.709Z,59.90
2018-09-09T10:42:59.287Z,59.20
2018-09-09T10:45:32.237Z,59.00
2018-09-09T10:48:05.272Z,58.80
2018-09-09T10:50:37.989Z,58.30
2018-09-09T10:53:11.192Z,58.10
2018-09-09T10:55:44.781Z,58.10
2018-09-09T10:58:17.946Z,57.70
2018-09-09T11:00:51.642Z,58.50
2018-09-09T11:03:24.375Z,58.20
2018-09-09T11:05:57.167Z,58.20
2018-09-09T11:08:30.214Z,57.20
2018-09-09T11:11:02.890Z,57.20
2018-09-09T11:13:36.074Z,56.70
2018-09-09T11:16:09.601Z,57.40
2018-09-09T11:18:43.097Z,57.30
2018-09-09T11:21:17.411Z,57.10
2018-09-09T11:23:50.208Z,56.70
2018-09-09T11:26:22.931Z,56.50
2018-09-09T11:28:56.497Z,56.00
2018-09-09T11:31:29.680Z,56.50
2018-09-09T11:34:02.559Z,55.90
2018-09-09T11:36:35.231Z,55.70
2018-09-09T11:39:11.059Z,56.00
2018-09-09T11:41:44.210Z,55.90
2018-09-09T11:44:17.037Z,54.80
2018-09-09T11:46:49.745Z,55.00
2018-09-09T11:49:22.589Z,54.50
2018-09-09T11:51:56.017Z,55.40
2018-09-09T11:54:28.791Z,54.10
2018-09-09T11:57:01.792Z,54.00
2018-09-09T11:59:34.645Z,53.60
2018-09-09T12:02:08.613Z,53.10
2018-09-09T12:04:41.369Z,52.60
2018-09-09T12:07:14.446Z,52.80
2018-09-09T12:09:47.468Z,52.50
2018-09-09T12:12:20.300Z,51.90
2018-09-09T12:14:53.124Z,51.50
2018-09-09T12:17:26.450Z,51.20
2018-09-09T12:19:59.249Z,50.90
2018-09-09T12:22:32.278Z,51.90
2018-09-09T12:25:05.977Z,51.40
2018-09-09T12:27:39.060Z,51.70
2018-09-09T12:30:11.933Z,51.60
2018-09-09T12:32:45.051Z,50.70
2018-09-09T12:35:17.869Z,51.20
2018-09-09T12:37:51.038Z,51.50
2018-09-09T12:40:23.812Z,51.80
2018-09-09T12:43:01.626Z,52.70
2018-09-09T12:45:38.926Z,51.00
2018-09-09T12:48:16.796Z,50.70
2018-09-09T12:50:49.875Z,51.30
2018-09-09T12:53:23.131Z,51.20
2018-09-09T12:55:56.491Z,50.80
2018-09-09T12:58:29.322Z,51.80
2018-09-09T13:01:02.002Z,51.40
2018-09-09T13:03:34.739Z,50.80
2018-09-09T13:06:07.573Z,50.10
2018-09-09T13:08:40.686Z,50.20
2018-09-09T13:11:14.061Z,50.30
2018-09-09T13:13:47.186Z,49.40
2018-09-09T13:16:19.945Z,49.50
2018-09-09T13:18:52.740Z,49.30
2018-09-09T13:21:25.565Z,48.70
2018-09-09T13:23:59.978Z,48.80
2018-09-09T13:26:33.058Z,49.40
2018-09-09T13:29:05.881Z,49.90
2018-09-09T13:31:39.070Z,50.60
2018-09-09T13:34:12.679Z,51.40
2018-09-09T13:36:45.351Z,49.90
2018-09-09T13:39:18.111Z,49.40
2018-09-09T13:41:50.876Z,49.40
2018-09-09T13:44:25.519Z,48.90
2018-09-09T13:46:58.940Z,48.40
2018-09-09T13:49:31.948Z,48.20
2018-09-09T13:52:05.659Z,49.50
2018-09-09T13:54:38.430Z,48.90
2018-09-09T13:57:11.745Z,48.90
2018-09-09T13:59:44.858Z,47.80
2018-09-09T14:02:17.801Z,47.00
2018-09-09T14:04:51.561Z,48.50
2018-09-09T14:07:24.601Z,46.40
2018-09-09T14:09:58.033Z,46.00
2018-09-09T14:12:31.429Z,45.70
2018-09-09T14:15:04.626Z,45.10
2018-09-09T14:17:38.991Z,45.10
2018-09-09T14:20:12.264Z,46.00
2018-09-09T14:22:44.965Z,45.10
2018-09-09T14:25:17.735Z,45.30
2018-09-09T14:27:51.434Z,45.40
2018-09-09T14:30:24.256Z,45.80
2018-09-09T14:32:57.006Z,46.60
2018-09-09T14:35:30.704Z,47.20
2018-09-09T14:38:03.445Z,45.70
2018-09-09T14:40:36.635Z,44.40
2018-09-09T14:43:10.244Z,43.60
2018-09-09T14:45:43.247Z,43.60
2018-09-09T14:48:16.028Z,42.80
2018-09-09T14:50:49.123Z,42.60
2018-09-09T14:53:21.876Z,42.00
2018-09-09T14:55:55.011Z,42.20
2018-09-09T14:58:28.063Z,42.50
2018-09-09T15:01:01.240Z,42.70
2018-09-09T15:03:35.134Z,43.50
2018-09-09T15:06:08.558Z,43.80
2018-09-09T15:08:41.778Z,43.60
2018-09-09T15:11:14.616Z,44.70
2018-09-09T15:13:47.822Z,44.70
2018-09-09T15:16:20.667Z,44.20
2018-09-09T15:18:53.617Z,44.20
2018-09-09T15:21:26.652Z,42.70
2018-09-09T15:23:59.338Z,42.50
2018-09-09T15:26:32.991Z,43.00
2018-09-09T15:29:06.205Z,43.00
2018-09-09T15:31:39.168Z,42.50
2018-09-09T15:34:12.135Z,43.40
2018-09-09T15:36:44.880Z,43.00
2018-09-09T15:39:17.671Z,43.40
2018-09-09T15:41:50.505Z,41.70
2018-09-09T15:44:23.849Z,42.70
2018-09-09T15:46:56.681Z,42.40
2018-09-09T15:49:29.466Z,43.70
2018-09-09T15:52:02.272Z,41.90
2018-09-09T15:54:35.325Z,41.40
2018-09-09T15:57:08.557Z,41.20
2018-09-09T15:59:41.892Z,41.10
2018-09-09T16:02:15.448Z,42.80
2018-09-09T16:04:49.204Z,42.30
2018-09-09T16:07:21.999Z,42.20
2018-09-09T16:09:55.561Z,42.60
2018-09-09T16:12:28.692Z,41.30
2018-09-09T16:15:01.879Z,41.20
2018-09-09T16:17:36.561Z,41.80
2018-09-09T16:20:11.294Z,42.10
2018-09-09T16:22:44.515Z,42.40
2018-09-09T16:25:18.293Z,42.70
2018-09-09T16:27:51.754Z,43.40
2018-09-09T16:30:24.665Z,43.70
2018-09-09T16:32:57.612Z,43.80
2018-09-09T16:35:30.471Z,44.60
2018-09-09T16:38:03.980Z,44.80
2018-09-09T16:40:37.477Z,44.90
2018-09-09T16:43:10.967Z,45.60
2018-09-09T16:45:44.831Z,46.00
2018-09-09T16:48:18.630Z,46.30
2018-09-09T16:50:51.561Z,47.70
2018-09-09T16:53:24.796Z,48.70
2018-09-09T16:55:59.067Z,48.90
2018-09-09T16:58:32.370Z,49.30
2018-09-09T17:01:05.338Z,50.00
2018-09-09T17:03:38.498Z,49.90
2018-09-09T17:06:11.536Z,50.70
2018-09-09T17:08:44.764Z,51.50
2018-09-09T17:11:17.700Z,51.30
2018-09-09T17:13:50.938Z,51.60
2018-09-09T17:16:23.899Z,52.50
2018-09-09T17:18:56.877Z,52.50
2018-09-09T17:21:30.076Z,52.60
2018-09-09T17:24:03.739Z,52.80
2018-09-09T17:26:38.049Z,52.80
2018-09-09T17:29:11.511Z,52.90
2018-09-09T17:31:44.368Z,53.30
2018-09-09T17:34:18.351Z,53.60
2018-09-09T17:36:51.999Z,54.10
2018-09-09T17:39:25.739Z,54.20
2018-09-09T17:41:59.369Z,54.50
2018-09-09T17:44:32.447Z,54.70
2018-09-09T17:47:05.772Z,55.30
2018-09-09T17:49:39.442Z,55.80
2018-09-09T17:52:13.918Z,56.20
2018-09-09T17:54:47.287Z,56.40
2018-09-09T17:57:20.346Z,56.80
2018-09-09T17:59:53.762Z,57.10
2018-09-09T18:02:27.416Z,57.10
2018-09-09T18:05:00.342Z,57.70
2018-09-09T18:07:33.989Z,58.20
2018-09-09T18:10:08.144Z,58.80
2018-09-09T18:12:41.304Z,59.50
2018-09-09T18:15:14.769Z,60.00
2018-09-09T18:17:47.719Z,60.40
2018-09-09T18:20:20.807Z,60.70
2018-09-09T18:22:54.073Z,61.00
2018-09-09T18:25:41.489Z,61.50
2018-09-09T18:28:30.749Z,61.90
2018-09-09T18:31:04.103Z,62.40
2018-09-09T18:33:37.642Z,62.40
2018-09-09T18:36:10.655Z,62.70
2018-09-09T18:38:44.393Z,63.00
2018-09-09T18:41:17.589Z,63.30
2018-09-09T18:43:51.040Z,63.50
2018-09-09T18:46:24.999Z,63.60
2018-09-09T18:48:58.022Z,63.80
2018-09-09T18:51:31.495Z,64.10
2018-09-09T18:54:04.935Z,64.10
2018-09-09T18:56:38.680Z,64.40
2018-09-09T18:59:13.012Z,64.80
2018-09-09T19:01:46.337Z,65.10
2018-09-09T19:04:21.058Z,65.40
2018-09-09T19:06:54.431Z,65.40
2018-09-09T19:09:27.816Z,65.70
2018-09-09T19:12:00.694Z,66.10
2018-09-09T19:14:34.837Z,66.40
2018-09-09T19:17:07.960Z,66.80
2018-09-09T19:19:41.291Z,67.10
2018-09-09T19:22:15.487Z,67.40
2018-09-09T19:24:49.559Z,67.60
2018-09-09T19:27:23.764Z,68.00
2018-09-09T19:29:56.787Z,68.40
2018-09-09T19:32:29.781Z,68.70
2018-09-09T19:35:02.992Z,69.00
2018-09-09T19:37:35.995Z,69.20
2018-09-09T19:40:09.805Z,69.50
2018-09-09T19:42:43.352Z,69.80
2018-09-09T19:45:16.869Z,70.00
2018-09-09T19:47:50.038Z,70.30
2018-09-09T19:50:23.162Z,70.50
2018-09-09T19:52:56.517Z,70.90
2018-09-09T19:55:30.165Z,71.20
2018-09-09T19:58:04.574Z,71.40
2018-09-09T20:00:37.547Z,71.60
2018-09-09T20:03:10.737Z,71.90
2018-09-09T20:05:44.104Z,72.00
2018-09-09T20:08:17.431Z,72.60
2018-09-09T20:10:51.251Z,73.00
2018-09-09T20:13:24.187Z,73.90
2018-09-09T20:15:57.608Z,73.50
2018-09-09T20:18:30.589Z,73.60
2018-09-09T20:21:03.312Z,74.20
2018-09-09T20:23:37.038Z,74.50
2018-09-09T20:26:11.419Z,74.60
2018-09-09T20:28:50.263Z,74.70
2018-09-09T20:31:23.412Z,74.90
2018-09-09T20:34:00.101Z,74.80
2018-09-09T20:36:43.243Z,75.10
2018-09-09T20:39:19.723Z,75.20
2018-09-09T20:41:54.267Z,75.30
2018-09-09T20:44:29.638Z,75.30
2018-09-09T20:47:04.184Z,75.50
2018-09-09T20:49:41.296Z,75.90
2018-09-09T20:52:14.878Z,76.00
2018-09-09T20:54:48.944Z,76.20
2018-09-09T20:57:24.377Z,76.30
2018-09-09T20:59:58.282Z,76.60
2018-09-09T21:02:34.554Z,76.90
2018-09-09T21:05:09.474Z,76.90
2018-09-09T21:07:42.403Z,77.10
2018-09-09T21:10:16.545Z,77.40
2018-09-09T21:12:50.155Z,77.50
2018-09-09T21:15:28.465Z,77.70
2018-09-09T21:18:04.310Z,77.60
2018-09-09T21:20:40.077Z,77.80
2018-09-09T21:23:13.146Z,78.10
2018-09-09T21:25:47.892Z,78.20
2018-09-09T21:28:25.816Z,78.40
2018-09-09T21:31:04.050Z,78.30
2018-09-09T21:33:45.696Z,78.30
2018-09-09T21:36:19.089Z,78.40
2018-09-09T21:38:52.558Z,78.70
2018-09-09T21:41:25.480Z,78.70
2018-09-09T21:43:59.062Z,79.10
2018-09-09T21:46:32.316Z,79.00
2018-09-09T21:49:06.017Z,78.90
2018-09-09T21:51:39.165Z,79.00
2018-09-09T21:54:12.924Z,79.40
2018-09-09T21:56:48.146Z,79.40
2018-09-09T21:59:21.047Z,79.70
2018-09-09T22:01:59.283Z,79.60
2018-09-09T22:04:32.112Z,78.90
2018-09-09T22:07:05.973Z,79.90
2018-09-09T22:09:39.333Z,79.80
2018-09-09T22:12:13.898Z,80.00
2018-09-09T22:14:47.036Z,80.10
2018-09-09T22:17:20.072Z,80.20
2018-09-09T22:19:53.327Z,80.50
2018-09-09T22:22:27.817Z,80.60
2018-09-09T22:25:00.680Z,80.60
2018-09-09T22:27:33.971Z,80.60
2018-09-09T22:30:07.765Z,80.70
2018-09-09T22:32:40.846Z,80.80
2018-09-09T22:35:14.347Z,80.70
2018-09-09T22:37:48.185Z,80.90
2018-09-09T22:40:22.140Z,80.80
2018-09-09T22:42:55.053Z,80.90
2018-09-09T22:45:27.992Z,82.00
2018-09-09T22:48:02.066Z,81.40
2018-09-09T22:50:35.252Z,81.20
2018-09-09T22:53:08.653Z,81.60
2018-09-09T22:55:42.688Z,81.60
2018-09-09T22:58:15.642Z,81.90
2018-09-09T23:00:48.640Z,82.00
2018-09-09T23:03:21.521Z,82.50
2018-09-09T23:05:56.151Z,82.70
2018-09-09T23:08:29.049Z,82.50
2018-09-09T23:11:01.921Z,82.70
2018-09-09T23:13:35.200Z,82.80
2018-09-09T23:16:08.236Z,83.00
2018-09-09T23:18:41.380Z,83.00
2018-09-09T23:21:15.171Z,83.10
2018-09-09T23:23:48.045Z,83.00
2018-09-09T23:26:20.931Z,83.10
2018-09-09T23:28:53.926Z,83.00
2018-09-09T23:31:26.827Z,82.80
2018-09-09T23:34:02.481Z,82.80
2018-09-09T23:36:35.491Z,82.80
2018-09-09T23:39:12.103Z,82.70
2018-09-09T23:41:45.340Z,82.70
2018-09-09T23:44:18.718Z,83.00
2018-09-09T23:46:52.158Z,83.00
2018-09-09T23:49:25.110Z,83.10
2018-09-09T23:51:57.954Z,83.20
2018-09-09T23:54:31.305Z,83.10
2018-09-09T23:57:04.661Z,83.00
2018-09-09T23:59:38.318Z,82.70
